Time;durP1;ratioP1;P1;durP2;ratioP2;P2;SDS_P1;SDS_P2;PMS_P1;PMS_P2;Temp;Humidity;BMP_temperature;BMP_pressure;BME280_temperature;BME280_humidity;BME280_pressure;Samples;Min_cycle;Max_cycle;Signal;HPM_P1;HPM_P2
2024/02/11 05:52:00;;;;;;;6.05;2.60;;;;;;;7.85;100.00;98368.63;6173682;22;20023;-85
2024/02/11 05:54:28;;;;;;;4.10;2.97;;;;;;;7.71;100.00;98368.72;6177394;23;20440;-85
2024/02/11 05:56:56;;;;;;;9.55;4.13;;;;;;;7.75;100.00;98366.78;6175727;23;20012;-82
2024/02/11 05:59:24;;;;;;;5.90;3.67;;;;;;;7.74;100.00;98365.28;6178436;23;20095;-85
2024/02/11 06:01:53;;;;;;;9.95;3.83;;;;;;;7.65;100.00;98364.91;6176047;23;20032;-85
2024/02/11 06:04:21;;;;;;;7.78;3.53;;;;;;;7.68;100.00;98358.78;6175312;23;20004;-86
2024/02/11 06:06:55;;;;;;;9.60;4.07;;;;;;;7.81;100.00;98373.25;6178688;23;20026;-85
2024/02/11 06:09:32;;;;;;;5.72;3.70;;;;;;;7.67;100.00;98376.00;6176050;23;20462;-85
2024/02/11 06:11:58;;;;;;;13.95;4.28;;;;;;;7.61;100.00;98358.81;6174901;23;20351;-85
2024/02/11 06:14:31;;;;;;;6.90;3.20;;;;;;;7.67;100.00;98359.94;6177079;23;20004;-85
2024/02/11 06:16:57;;;;;;;10.60;3.42;;;;;;;7.57;100.00;98366.13;6177346;23;20020;-85
2024/02/11 06:19:23;;;;;;;8.77;3.67;;;;;;;7.53;100.00;98368.06;6176390;23;20030;-85
2024/02/11 06:21:51;;;;;;;8.98;4.28;;;;;;;7.44;100.00;98365.81;6151140;23;20514;-84
2024/02/11 06:24:23;;;;;;;8.77;3.45;;;;;;;7.52;100.00;98369.22;6175684;23;20095;-86
2024/02/11 06:26:56;;;;;;;6.53;3.45;;;;;;;7.67;100.00;98363.38;6176564;23;20447;-85
2024/02/11 06:29:26;;;;;;;9.88;4.07;;;;;;;7.81;100.00;98379.38;6177577;23;20015;-86
2024/02/11 06:31:53;;;;;;;7.32;3.75;;;;;;;7.75;100.00;98375.59;6177887;23;20032;-85
2024/02/11 06:34:22;;;;;;;8.25;3.28;;;;;;;7.80;100.00;98385.13;6175045;23;20527;-85
2024/02/11 06:36:48;;;;;;;9.18;3.33;;;;;;;7.85;100.00;98388.16;6176348;23;20012;-85
2024/02/11 06:39:14;;;;;;;7.30;3.38;;;;;;;7.71;100.00;98395.50;6178848;23;20036;-84
2024/02/11 06:41:43;;;;;;;9.93;3.25;;;;;;;7.81;100.00;98390.09;6175363;23;20004;-86
2024/02/11 06:44:12;;;;;;;9.48;3.22;;;;;;;7.84;100.00;98393.91;6177143;23;20012;-86
2024/02/11 06:46:37;;;;;;;7.28;3.38;;;;;;;7.72;100.00;98394.38;6177946;23;20774;-86
2024/02/11 06:49:08;;;;;;;7.18;3.30;;;;;;;7.71;100.00;98396.28;6177418;23;20082;-86
2024/02/11 06:51:39;;;;;;;8.73;3.38;;;;;;;7.71;100.00;98398.19;6151820;23;20244;-85
2024/02/11 06:54:06;;;;;;;6.80;3.13;;;;;;;7.76;100.00;98411.91;6151110;23;20019;-86
2024/02/11 06:56:33;;;;;;;7.40;3.50;;;;;;;7.89;100.00;98412.25;6179027;23;20350;-86
2024/02/11 06:59:03;;;;;;;11.55;3.80;;;;;;;7.85;100.00;98414.94;6183419;23;20001;-85
2024/02/11 07:01:29;;;;;;;7.68;3.40;;;;;;;7.93;100.00;98421.81;6191504;23;20667;-86
2024/02/11 07:03:58;;;;;;;9.32;3.92;;;;;;;7.91;100.00;98426.78;6185735;23;20443;-85
2024/02/11 07:06:23;;;;;;;8.68;3.45;;;;;;;7.91;100.00;98432.16;6184694;23;20095;-86
2024/02/11 07:08:50;;;;;;;7.05;3.17;;;;;;;7.75;100.00;98436.44;6183027;23;20032;-84
2024/02/11 07:11:17;;;;;;;7.45;3.60;;;;;;;7.83;100.00;98435.25;6190616;23;20324;-85
2024/02/11 07:13:44;;;;;;;6.95;3.78;;;;;;;7.97;100.00;98443.22;6180740;23;20013;-84
2024/02/11 07:16:09;;;;;;;13.18;3.33;;;;;;;8.03;100.00;98447.75;6156513;23;20020;-85
2024/02/11 07:18:38;;;;;;;9.35;4.13;;;;;;;8.02;100.00;98456.19;6178952;23;20189;-85
2024/02/11 07:21:06;;;;;;;5.80;3.08;;;;;;;8.05;100.00;98463.47;6186130;23;20177;-84
2024/02/11 07:23:37;;;;;;;8.13;3.25;;;;;;;8.08;100.00;98460.75;6161223;23;20374;-84
2024/02/11 07:26:05;;;;;;;6.95;3.38;;;;;;;8.11;100.00;98469.91;6186798;23;20054;-85
2024/02/11 07:28:33;;;;;;;9.68;3.10;;;;;;;7.95;100.00;98462.38;6171709;22;20029;-85
2024/02/11 07:30:59;;;;;;;8.32;2.75;;;;;;;8.05;100.00;98471.50;6173978;23;20028;-84
2024/02/11 07:33:32;;;;;;;6.75;3.25;;;;;;;7.91;100.00;98475.03;6121644;23;20074;-84
2024/02/11 07:35:57;;;;;;;6.25;2.97;;;;;;;7.92;100.00;98471.16;6171835;23;20023;-85
2024/02/11 07:38:30;;;;;;;9.77;3.95;;;;;;;7.99;100.00;98481.84;6175319;23;20005;-85
2024/02/11 07:40:58;;;;;;;7.95;3.58;;;;;;;8.12;100.00;98484.84;6174425;23;20454;-85
2024/02/11 07:43:25;;;;;;;6.10;2.95;;;;;;;8.03;100.00;98481.84;6174958;23;20016;-85
2024/02/11 07:45:57;;;;;;;9.77;3.72;;;;;;;7.95;100.00;98485.72;6148630;23;20008;-85
2024/02/11 07:51:23;;;;;;;6.63;3.65;;;;;;;8.17;100.00;98489.78;6169589;22;20063;-85
2024/02/11 07:54:02;;;;;;;11.90;3.22;;;;;;;8.17;100.00;98495.16;6172326;23;20024;-85
2024/02/11 07:56:29;;;;;;;8.73;2.95;;;;;;;8.09;100.00;98499.06;6149283;23;20027;-86
2024/02/11 07:58:57;;;;;;;9.73;4.13;;;;;;;8.19;100.00;98495.53;6184351;23;20004;-85
2024/02/11 08:01:23;;;;;;;11.73;3.92;;;;;;;8.21;100.00;98494.00;6148976;23;20019;-85
2024/02/11 08:03:48;;;;;;;7.22;3.13;;;;;;;8.18;100.00;98494.78;6125886;23;20012;-85
2024/02/11 08:06:17;;;;;;;6.32;3.05;;;;;;;8.16;100.00;98494.41;6175364;23;20459;-85
2024/02/11 08:08:43;;;;;;;10.18;3.35;;;;;;;8.15;100.00;98490.19;6176407;23;20008;-86
2024/02/11 08:11:09;;;;;;;10.20;3.85;;;;;;;8.35;100.00;98487.03;6151250;23;20646;-85
2024/02/11 08:13:39;;;;;;;9.55;3.42;;;;;;;8.32;100.00;98496.66;6151501;23;20008;-85
2024/02/11 08:16:06;;;;;;;9.93;4.20;;;;;;;8.32;100.00;98488.59;6160219;23;20119;-86
2024/02/11 08:18:34;;;;;;;9.05;3.58;;;;;;;8.25;100.00;98485.19;6176801;23;19999;-86
2024/02/11 08:21:25;;;;;;;7.13;3.30;;;;;;;8.28;100.00;98492.47;6153971;23;20414;-85
2024/02/11 08:23:56;;;;;;;7.78;3.20;;;;;;;8.10;100.00;98495.19;6146885;23;20458;-85
2024/02/11 08:26:36;;;;;;;10.15;3.97;;;;;;;8.17;100.00;98490.56;6124532;23;20813;-85
2024/02/11 08:29:05;;;;;;;10.35;3.55;;;;;;;8.11;100.00;98486.00;6172512;23;20018;-85
2024/02/11 08:31:31;;;;;;;10.70;4.13;;;;;;;8.19;100.00;98503.56;6148057;23;20633;-85
2024/02/11 08:34:11;;;;;;;6.28;3.40;;;;;;;8.12;100.00;98501.72;6175287;23;20028;-85
2024/02/11 08:36:37;;;;;;;11.05;4.53;;;;;;;8.18;100.00;98504.75;6148151;23;20043;-85
2024/02/11 08:39:03;;;;;;;7.43;3.30;;;;;;;8.22;100.00;98502.81;6186069;23;20000;-85
2024/02/11 08:41:29;;;;;;;11.18;4.03;;;;;;;8.15;100.00;98508.97;6147877;23;20642;-85
2024/02/11 08:43:54;;;;;;;12.95;4.05;;;;;;;8.28;100.00;98503.19;6146778;23;20406;-86
2024/02/11 08:46:20;;;;;;;9.43;4.18;;;;;;;8.18;100.00;98504.75;6171997;23;20004;-85
2024/02/11 08:48:58;;;;;;;10.55;3.25;;;;;;;8.22;100.00;98502.81;6173509;23;20012;-86
2024/02/11 08:51:34;;;;;;;5.78;2.78;;;;;;;8.32;100.00;98504.69;6172551;23;20084;-84
2024/02/11 08:54:00;;;;;;;9.52;3.50;;;;;;;8.35;100.00;98501.22;6171515;23;20031;-84
2024/02/11 17:04:49;;;;;;;15.25;3.72;;;;;;;8.33;99.53;98624.19;6168720;23;20013;-65
2024/02/11 17:07:16;;;;;;;9.05;3.78;;;;;;;8.36;99.65;98619.97;6151161;23;21003;-89
2024/02/11 17:09:42;;;;;;;12.15;4.75;;;;;;;8.32;99.70;98611.94;6125952;23;20004;-89
2024/02/11 17:12:09;;;;;;;16.40;5.05;;;;;;;8.36;100.00;98615.38;6152478;23;20019;-90
2024/02/11 17:14:53;;;;;;;11.57;4.35;;;;;;;8.39;99.90;98621.88;6186391;23;20004;-90
2024/02/11 17:17:21;;;;;;;10.45;3.67;;;;;;;8.47;99.41;98626.81;6133392;23;20043;-90
2024/02/11 17:19:47;;;;;;;6.57;3.55;;;;;;;8.44;99.05;98627.56;6184979;23;20449;-89
2024/02/11 17:22:25;;;;;;;8.05;3.50;;;;;;;8.48;99.62;98628.31;6162166;23;20111;-88
2024/02/11 17:25:03;;;;;;;11.23;4.72;;;;;;;8.44;99.18;98626.84;6136622;23;20853;-89
2024/02/11 17:33:23;;;;;;;9.95;4.50;;;;;;;8.32;100.00;98624.59;6173508;22;21132;-91
2024/02/11 17:37:07;;;;;;;7.20;3.30;;;;;;;8.35;99.91;98624.56;6191898;23;20528;-91
2024/02/11 17:43:25;;;;;;;18.23;4.80;;;;;;;8.40;99.96;98632.19;6219713;23;20044;-93
2024/02/11 17:46:34;;;;;;;11.05;2.92;;;;;;;8.39;99.70;98638.72;6208454;23;20019;-89
2024/02/11 17:49:28;;;;;;;9.80;3.65;;;;;;;8.39;99.29;98638.72;6222214;23;20015;-90
2024/02/11 17:51:59;;;;;;;15.43;3.65;;;;;;;8.33;99.83;98637.59;6240010;23;20004;-90
2024/02/11 17:54:32;;;;;;;6.70;3.13;;;;;;;8.36;99.69;98644.09;6191626;23;20012;-90
2024/02/11 17:57:21;;;;;;;5.72;3.15;;;;;;;8.34;100.00;98641.81;6215615;23;20456;-89
2024/02/11 18:00:19;;;;;;;9.95;3.03;;;;;;;8.44;99.42;98646.34;6182164;23;20023;-89
2024/02/11 18:03:03;;;;;;;10.27;4.07;;;;;;;8.31;99.57;98647.94;6191990;23;20054;-89
2024/02/11 18:06:19;;;;;;;7.07;3.33;;;;;;;8.41;99.25;98654.41;6194486;23;20044;-89
2024/02/11 18:08:58;;;;;;;11.10;3.33;;;;;;;8.32;99.52;98652.16;6227278;23;20038;-89
2024/02/11 18:11:37;;;;;;;7.10;3.47;;;;;;;8.34;100.00;98651.78;6197467;23;20628;-87
2024/02/11 18:14:03;;;;;;;7.25;3.80;;;;;;;8.33;99.51;98651.00;6194828;23;20008;-90
2024/02/11 18:17:25;;;;;;;10.00;4.53;;;;;;;8.36;99.78;98654.84;6220852;23;20004;-90
2024/02/11 18:20:50;;;;;;;12.02;3.80;;;;;;;8.32;100.00;98654.84;6144003;23;20008;-88
2024/02/11 18:23:46;;;;;;;12.55;3.67;;;;;;;8.40;99.53;98652.91;6158056;23;20030;-90
2024/02/11 18:26:11;;;;;;;6.93;3.10;;;;;;;8.36;99.78;98649.47;6207476;23;20032;-81
2024/02/11 18:28:44;;;;;;;12.98;3.83;;;;;;;8.35;100.00;98664.78;6244741;22;20464;-92
2024/02/11 18:31:20;;;;;;;7.25;3.40;;;;;;;8.45;99.39;98664.00;6196436;23;20012;-89
2024/02/11 18:38:24;;;;;;;6.15;3.22;;;;;;;8.32;99.84;98657.53;6231620;23;20061;-90
2024/02/11 18:41:03;;;;;;;5.60;3.17;;;;;;;8.36;99.98;98663.66;6177174;23;20489;-90
2024/02/11 18:43:32;;;;;;;9.55;4.20;;;;;;;8.33;99.70;98658.28;6223529;23;20015;-91
2024/02/11 18:46:01;;;;;;;9.65;4.00;;;;;;;8.18;100.00;98661.00;6194194;23;20506;-90
2024/02/11 18:48:36;;;;;;;7.95;4.43;;;;;;;8.36;99.59;98660.97;6194589;23;20073;-90
2024/02/11 18:51:05;;;;;;;6.10;3.42;;;;;;;8.28;99.55;98664.03;6196791;23;20011;-91
2024/02/11 18:53:40;;;;;;;11.00;3.90;;;;;;;8.28;99.99;98672.09;6218549;23;20484;-91
2024/02/11 18:56:06;;;;;;;12.52;3.78;;;;;;;8.25;99.85;98665.59;6169969;23;20012;-91
2024/02/11 18:58:37;;;;;;;5.22;2.60;;;;;;;8.15;100.00;98667.13;6196338;23;20000;-91
2024/02/11 19:01:06;;;;;;;13.02;4.10;;;;;;;8.16;100.00;98676.69;6230599;23;20026;-90
2024/02/11 19:07:27;;;;;;;6.32;3.22;;;;;;;8.37;100.00;98673.22;5979241;23;20020;-90
2024/02/11 19:10:23;;;;;;;8.45;3.53;;;;;;;8.35;99.73;98674.75;5976635;23;20016;-91
2024/02/11 19:13:28;;;;;;;8.45;3.40;;;;;;;8.21;99.72;98684.34;6170067;23;20425;-91
2024/02/11 19:16:16;;;;;;;5.60;2.90;;;;;;;8.29;100.00;98676.28;6228174;23;20015;-92
2024/02/11 19:18:56;;;;;;;5.53;2.83;;;;;;;8.23;100.00;98675.91;6193912;23;20018;-92
2024/02/11 19:21:46;;;;;;;10.55;4.40;;;;;;;8.27;100.00;98682.03;6195868;23;20761;-91
2024/02/11 19:24:18;;;;;;;9.18;3.65;;;;;;;8.32;100.00;98684.34;6196420;23;20022;-91
2024/02/11 19:26:44;;;;;;;9.43;4.25;;;;;;;8.34;100.00;98682.03;6209057;23;20012;-87
2024/02/11 19:29:22;;;;;;;9.63;3.70;;;;;;;8.29;99.98;98687.78;6207872;23;20038;-88
2024/02/11 19:31:51;;;;;;;5.88;2.78;;;;;;;8.29;100.00;98682.44;6230015;23;20070;-88
2024/02/11 19:34:20;;;;;;;8.98;3.28;;;;;;;8.33;100.00;98691.22;6198923;23;20012;-89
2024/02/11 19:36:49;;;;;;;10.57;4.90;;;;;;;8.35;100.00;98701.56;6231073;23;20003;-88
2024/02/11 19:42:09;;;;;;;7.15;3.13;;;;;;;8.35;100.00;98691.59;6218695;23;20012;-88
2024/02/11 19:44:44;;;;;;;9.10;2.97;;;;;;;8.29;100.00;98698.50;6201062;23;20030;-89
2024/02/11 20:24:00;;;;;;;5.68;2.50;;;;;;;8.25;100.00;98705.03;6189040;22;20071;-91
2024/02/11 20:30:46;;;;;;;5.00;2.25;;;;;;;8.25;100.00;98721.13;6050070;23;20790;-90
2024/02/11 20:34:23;;;;;;;;;;;;;;;;;;;;;
2024/02/11 20:36:49;;;;;;;3.35;2.10;;;;;;;8.27;100.00;98727.63;5950187;23;20654;-90
2024/02/11 20:39:15;;;;;;;6.47;3.38;;;;;;;8.29;100.00;98719.97;5929799;24;20013;-89
2024/02/11 20:41:41;;;;;;;5.50;2.63;;;;;;;8.31;100.00;98728.38;6061281;23;20028;-90
2024/02/11 20:44:13;;;;;;;7.63;2.95;;;;;;;8.34;99.98;98727.63;6155747;23;20016;-87
2024/02/11 20:46:42;;;;;;;6.07;3.30;;;;;;;8.34;100.00;98734.91;6132650;23;20506;-88
2024/02/11 20:49:08;;;;;;;9.63;3.35;;;;;;;8.34;99.97;98727.63;6105595;23;20092;-88
2024/02/11 20:52:01;;;;;;;6.63;2.67;;;;;;;8.31;99.86;98736.44;6100917;23;20477;-88
2024/02/11 20:54:27;;;;;;;8.52;3.50;;;;;;;8.31;99.92;98728.38;6143757;23;20013;-88
2024/02/11 20:56:56;;;;;;;10.10;3.30;;;;;;;8.36;99.71;98732.59;6140289;23;20004;-88
2024/02/11 20:59:25;;;;;;;7.72;3.38;;;;;;;8.32;100.00;98726.47;6143342;23;20012;-89
2024/02/11 21:01:51;;;;;;;6.05;2.58;;;;;;;8.29;99.84;98730.69;6142279;23;20048;-89
2024/02/11 21:04:17;;;;;;;5.90;2.35;;;;;;;8.33;100.00;98739.50;6116642;23;20019;-89
2024/02/11 21:06:59;;;;;;;;;;;;;;;;;;;;;
2024/02/11 21:10:00;;;;;;;6.47;2.45;;;;;;;8.33;100.00;98736.81;6150596;23;20728;-89
2024/02/11 21:12:43;;;;;;;8.27;2.85;;;;;;;8.37;99.71;98737.56;6137668;23;20451;-89
2024/02/11 21:15:19;;;;;;;10.75;3.22;;;;;;;8.32;99.80;98734.53;6140449;23;20017;-90
2024/02/11 21:23:20;;;;;;;5.10;2.40;;;;;;;8.28;100.00;98742.56;6199667;22;20068;-91
2024/02/11 21:25:45;;;;;;;5.85;2.60;;;;;;;8.32;100.00;98743.34;6133236;23;20044;-88
2024/02/11 21:28:12;;;;;;;7.65;3.00;;;;;;;8.26;100.00;98744.88;6156510;23;20005;-88
2024/02/11 21:30:41;;;;;;;3.70;2.22;;;;;;;8.35;99.76;98749.81;6133493;23;20009;-91
2024/02/11 21:33:06;;;;;;;6.93;3.35;;;;;;;8.24;100.00;98752.50;6127547;23;20013;-91
2024/02/11 21:35:32;;;;;;;3.97;2.25;;;;;;;8.27;100.00;98759.03;6150293;23;20383;-88
2024/02/11 21:38:00;;;;;;;4.90;2.28;;;;;;;8.32;99.88;98751.38;6153139;23;20348;-89
2024/02/11 21:40:28;;;;;;;4.53;2.00;;;;;;;8.28;99.69;98747.94;6129013;23;20013;-89
2024/02/11 21:42:57;;;;;;;4.15;2.20;;;;;;;8.33;99.73;98752.91;6129811;23;20020;-89
2024/02/11 21:45:26;;;;;;;3.90;2.35;;;;;;;8.29;99.56;98752.13;6130194;23;20013;-90
2024/02/11 21:47:52;;;;;;;5.10;2.53;;;;;;;8.37;99.11;98748.28;6156755;23;19997;-89
2024/02/11 21:50:27;;;;;;;3.90;2.65;;;;;;;8.39;99.39;98753.28;6131769;23;20021;-89
2024/02/11 21:52:56;;;;;;;6.18;2.38;;;;;;;8.37;98.95;98753.66;6154203;23;20023;-89
2024/02/11 21:55:25;;;;;;;6.30;3.50;;;;;;;8.34;98.59;98756.34;6155541;23;20733;-89
2024/02/11 21:57:52;;;;;;;4.55;2.58;;;;;;;8.33;98.73;98752.91;6153122;23;20451;-89
2024/02/11 22:00:20;;;;;;;4.15;2.60;;;;;;;8.37;98.73;98760.94;6128419;23;20522;-89
2024/02/11 22:02:55;;;;;;;3.45;1.92;;;;;;;8.33;98.61;98755.59;6130698;23;20837;-89
2024/02/11 22:05:23;;;;;;;4.45;2.00;;;;;;;8.23;99.19;98761.69;6111780;23;20033;-89
2024/02/11 22:07:57;;;;;;;3.42;1.42;;;;;;;8.26;99.81;98760.19;6161639;23;20028;-89
2024/02/11 22:13:34;;;;;;;1.50;1.20;;;;;;;8.20;100.00;98757.88;6156472;23;20019;-90
2024/02/11 22:16:17;;;;;;;6.38;3.00;;;;;;;8.27;100.00;98765.16;6154232;23;20013;-88
2024/02/11 22:19:07;;;;;;;10.32;2.00;;;;;;;8.36;99.07;98762.09;6156312;23;20025;-89
2024/02/11 22:21:35;;;;;;;2.92;1.85;;;;;;;8.28;99.26;98766.72;6108003;23;20044;-90
2024/02/11 22:24:03;;;;;;;4.97;2.33;;;;;;;8.30;99.46;98763.63;6143401;23;20016;-89
2024/02/11 22:26:31;;;;;;;2.50;2.10;;;;;;;8.34;98.78;98761.72;6161884;23;20039;-89
2024/02/11 22:29:14;;;;;;;7.00;2.42;;;;;;;8.25;99.39;98762.09;6163298;23;20032;-89
2024/02/11 22:31:49;;;;;;;3.17;2.08;;;;;;;8.23;99.56;98769.72;6192377;23;20392;-89
2024/02/11 22:34:30;;;;;;;6.20;1.35;;;;;;;8.26;100.00;98763.66;6191784;23;20478;-89
2024/02/11 22:37:04;;;;;;;2.60;1.63;;;;;;;8.25;99.95;98761.31;6191177;23;20009;-89
2024/02/11 22:39:35;;;;;;;2.60;1.50;;;;;;;8.27;100.00;98761.72;6164880;23;20004;-90
2024/02/11 22:42:12;;;;;;;2.45;2.17;;;;;;;8.22;99.97;98765.53;6165774;23;20044;-89
2024/02/11 22:44:51;;;;;;;3.28;1.67;;;;;;;8.23;100.00;98769.72;6137754;23;20016;-89
2024/02/11 22:47:25;;;;;;;5.72;2.40;;;;;;;8.23;100.00;98775.88;6189415;23;20012;-89
2024/02/11 22:50:01;;;;;;;3.72;1.67;;;;;;;8.25;100.00;98772.06;6164759;23;20020;-90
2024/02/11 22:52:31;;;;;;;2.78;1.65;;;;;;;8.27;100.00;98772.44;6190463;23;20016;-89
2024/02/11 22:55:03;;;;;;;3.05;1.83;;;;;;;8.29;100.00;98775.50;6191306;23;20013;-90
2024/02/11 23:00:39;;;;;;;3.90;1.63;;;;;;;8.30;99.84;98771.69;6164342;23;20587;-89
2024/02/11 23:03:06;;;;;;;1.70;1.38;;;;;;;8.29;100.00;98781.63;6186327;23;20088;-89
2024/02/11 23:05:44;;;;;;;2.55;1.77;;;;;;;8.28;99.66;98779.34;6189590;23;20023;-90
2024/02/11 23:08:19;;;;;;;2.90;1.58;;;;;;;8.37;99.34;98780.47;6188703;23;20523;-90
2024/02/11 23:11:02;;;;;;;2.70;1.92;;;;;;;8.28;99.58;98785.47;6162878;23;20151;-90
2024/02/11 23:13:34;;;;;;;3.35;1.88;;;;;;;8.25;100.00;98788.91;6186042;23;20013;-89
2024/02/11 23:16:01;;;;;;;5.35;1.90;;;;;;;8.24;100.00;98787.38;6137830;23;20818;-89
2024/02/11 23:18:52;;;;;;;5.50;2.25;;;;;;;8.24;100.00;98787.38;6162073;23;21090;-89
2024/02/11 23:21:23;;;;;;;2.65;1.83;;;;;;;8.27;100.00;98785.84;6188514;23;20127;-89
2024/02/11 23:23:50;;;;;;;5.25;2.10;;;;;;;8.28;100.00;98784.72;6137105;23;20179;-90
2024/02/11 23:26:23;;;;;;;2.42;1.60;;;;;;;8.30;100.00;98793.13;6185091;23;20079;-90
2024/02/11 23:28:58;;;;;;;2.38;1.80;;;;;;;8.28;100.00;98793.53;6186517;23;20016;-89
2024/02/11 23:31:29;;;;;;;6.00;2.20;;;;;;;8.46;98.61;98796.94;6185264;23;20031;-89
2024/02/11 23:33:55;;;;;;;2.75;1.55;;;;;;;8.48;98.09;98796.56;6158806;23;20043;-90
2024/02/11 23:36:26;;;;;;;2.35;1.30;;;;;;;8.41;98.51;98794.66;6197803;23;20004;-90
2024/02/11 23:38:52;;;;;;;;;;;;;;;8.28;99.02;98788.16;6199210;23;20260;-90
2024/02/11 23:41:21;;;;;;;1.27;0.82;;;;;;;8.34;98.85;98797.34;6175920;23;19951;-89
2024/02/11 23:44:00;;;;;;;3.80;1.90;;;;;;;8.25;99.29;98793.50;6210588;23;20004;-89
2024/02/11 23:46:28;;;;;;;1.80;1.48;;;;;;;8.27;99.90;98804.59;6205621;23;20008;-91
2024/02/11 23:49:00;;;;;;;4.22;2.72;;;;;;;8.23;100.00;98797.31;6208968;23;20008;-89
2024/02/11 23:51:31;;;;;;;5.22;2.25;;;;;;;8.27;100.00;98808.06;6170170;23;20020;-90
2024/02/11 23:54:01;;;;;;;3.17;2.05;;;;;;;8.25;100.00;98796.97;6162000;23;20032;-89
2024/02/11 23:56:31;;;;;;;5.88;2.13;;;;;;;8.29;100.00;98799.63;6163165;23;20082;-90
2024/02/11 23:59:08;;;;;;;2.58;1.70;;;;;;;8.36;99.52;98795.06;6187355;23;20022;-89
